Airfield :
LOGIN :

Register | Disclaimer

   EN    FR    IT 

 










Legend :    VFR   Marginal VFR   IFR   Intensive IFR   Very Intensive IFR
Visi :
Ceiling :
>= 8 km
>= 3000ft
5 to 8 km
1000 to 3000 ft
1500m to 5 km
500 to 1000 ft
800 to 1500m
200 to 500 ft
< 800m
< 200 ft
Symbols :   Thunderstorms  Fog  Heavy snow  Heavy precipitations  Wind > 20 kt
SIGMETs :     Misc.  Thunderstorms  Icing  Turbulence  Mountain Waves  Volcanic Ashes






- Airport Elevation : 856 ft
- IATA code : VGO


LEVX - Vigo Peinador

CURRENT METAR :
  • 200300Z 23004KT 200V260 9999 SCT032 11/06 Q1016 TEMPO 3000 RADZ BKN010

EXPIRED METARs :
  • 200230Z 23004KT 180V270 9999 BKN029 12/06 Q1016 TEMPO 3000 RADZ BKN010
  • 200200Z 22003KT 200V260 9999 SCT030 12/06 Q1016 TEMPO 3000 RADZ BKN010
  • 200130Z 23003KT 190V250 9999 SCT022 BKN030 12/06 Q1017 TEMPO 3000 RADZ BKN010
  • 200100Z 26003KT 210V290 9999 SCT014 BKN027 12/05 Q1017 TEMPO 3000 RADZ BKN010
  • 200030Z 23003KT 190V260 9999 BKN015 BKN024 12/06 Q1017 TEMPO 3000 RADZ BKN010

TAF TAF LEVX
Valid from the 20 at 00:00 until the 21 at 00:00 UTC


192300Z 2000/2024 VRB04KT 8000 SCT020 TX15/2013Z TN09/2006Z
TEMPO 2000/2012 3000 RADZ BR BKN010
TEMPO 2000/2009 0800 DZ BKN002 BKN005
PROB40
TEMPO 2003/2009 0150 RA FG VV001
TEMPO 2012/2018 28010KT
TEMPO 2012/2018 3000 RA BR BKN010



MET'MAP, your aeronautical weather chart ! - Copyright ORBIFLY December 2007 - Disclaimer

ORBIFLY MET'MAP TEAM :

Programming & Development : Alexandra Zaïnal
Concept & original design : Baudouin d'Aumeries
Assistance for programming : Marc-Olivier Méhu
Technical & hardware support : Manuel Goepfert

Contact : metmap@orbifly.com




SOURCES & CREDITS :

   NOAA